Time;durP1;ratioP1;P1;durP2;ratioP2;P2;SDS_P1;SDS_P2;PMS_P1;PMS_P2;Temp;Humidity;BMP_temperature;BMP_pressure;BME280_temperature;BME280_humidity;BME280_pressure;Samples;Min_cycle;Max_cycle;Signal;HPM_P1;HPM_P2
2023/01/13 00:00:23;;;;;;;0.90;0.90;;;;;;;;;;5028242;28;20643;-74
2023/01/13 00:02:50;;;;;;;1.63;1.00;;;;;;;;;;5027647;28;20486;-75
2023/01/13 00:05:17;;;;;;;1.23;1.10;;;;;;;;;;5028192;28;20442;-74
2023/01/13 00:07:45;;;;;;;1.30;1.20;;;;;;;;;;5028762;28;20508;-73
2023/01/13 00:10:13;;;;;;;2.07;1.30;;;;;;;;;;5028825;28;20939;-74
2023/01/13 00:12:41;;;;;;;1.60;1.07;;;;;;;;;;5027794;28;20505;-74
2023/01/13 00:15:09;;;;;;;2.30;0.77;;;;;;;;;;5034451;28;20445;-73
2023/01/13 00:17:37;;;;;;;2.30;1.20;;;;;;;;;;5047286;28;20448;-74
2023/01/13 00:20:05;;;;;;;1.10;1.10;;;;;;;;;;5047615;28;20469;-74
2023/01/13 00:22:33;;;;;;;1.50;1.20;;;;;;;;;;5048071;28;20493;-73
2023/01/13 00:25:00;;;;;;;2.20;1.33;;;;;;;;;;5048321;28;20484;-74
2023/01/13 00:27:29;;;;;;;2.80;1.10;;;;;;;;;;5047706;28;20906;-73
2023/01/13 00:29:56;;;;;;;1.27;1.17;;;;;;;;;;5047672;28;20465;-74
2023/01/13 00:32:23;;;;;;;1.20;1.10;;;;;;;;;;5047559;28;20452;-72
2023/01/13 00:34:50;;;;;;;2.40;1.00;;;;;;;;;;5047573;28;20445;-76
2023/01/13 00:37:17;;;;;;;2.93;0.97;;;;;;;;;;5048978;28;20456;-74
2023/01/13 00:39:44;;;;;;;2.33;1.10;;;;;;;;;;5049274;28;20540;-74
2023/01/13 00:44:57;;;;;;;1.80;1.10;;;;;;;;;;5060855;28;20420;-74
2023/01/13 00:47:24;;;;;;;1.07;1.07;;;;;;;;;;5049789;28;20449;-74
2023/01/13 00:49:51;;;;;;;3.30;0.87;;;;;;;;;;5048711;28;20531;-74
2023/01/13 00:52:18;;;;;;;1.47;1.07;;;;;;;;;;5049586;28;20445;-74
2023/01/13 00:54:45;;;;;;;0.93;0.90;;;;;;;;;;5050608;28;20445;-74
2023/01/13 00:57:14;;;;;;;1.00;1.00;;;;;;;;;;5067508;28;20971;-75
2023/01/13 00:59:41;;;;;;;3.23;1.00;;;;;;;;;;5067243;28;20830;-73
2023/01/13 01:02:09;;;;;;;1.00;1.00;;;;;;;;;;5067564;28;20476;-75
2023/01/13 01:04:36;;;;;;;0.93;0.80;;;;;;;;;;5067362;28;20818;-74
2023/01/13 01:07:03;;;;;;;1.30;1.20;;;;;;;;;;5069033;28;20457;-75
2023/01/13 01:09:33;;;;;;;2.43;1.47;;;;;;;;;;5071152;28;20469;-74
2023/01/13 01:12:00;;;;;;;2.17;1.30;;;;;;;;;;5071861;28;20449;-75
2023/01/13 01:14:28;;;;;;;3.00;1.40;;;;;;;;;;5069400;28;20452;-73
2023/01/13 01:16:55;;;;;;;0.90;0.87;;;;;;;;;;5050999;28;20854;-74
2023/01/13 01:19:23;;;;;;;1.00;0.93;;;;;;;;;;5050741;28;21004;-74
2023/01/13 01:21:50;;;;;;;1.30;1.20;;;;;;;;;;5064668;28;20491;-74
2023/01/13 01:24:17;;;;;;;0.90;0.73;;;;;;;;;;5071123;28;20824;-75
2023/01/13 01:26:44;;;;;;;1.10;0.97;;;;;;;;;;5071315;28;20460;-75
2023/01/13 01:29:13;;;;;;;1.20;1.10;;;;;;;;;;5070891;28;20461;-75
2023/01/13 01:31:41;;;;;;;2.07;1.13;;;;;;;;;;5070984;28;20970;-74
2023/01/13 01:34:08;;;;;;;1.33;0.90;;;;;;;;;;5070003;28;20959;-75
2023/01/13 01:36:36;;;;;;;1.90;0.90;;;;;;;;;;5070698;28;20444;-75
2023/01/13 01:39:04;;;;;;;1.17;0.90;;;;;;;;;;5049250;28;20466;-73
2023/01/13 01:41:32;;;;;;;1.60;1.10;;;;;;;;;;5050676;28;20454;-74
2023/01/13 01:44:01;;;;;;;1.00;0.83;;;;;;;;;;5050878;28;20485;-75
2023/01/13 01:46:29;;;;;;;1.97;0.97;;;;;;;;;;5050408;28;20446;-75
2023/01/13 01:48:59;;;;;;;2.80;0.80;;;;;;;;;;5050273;28;20476;-74
2023/01/13 01:51:27;;;;;;;1.27;0.80;;;;;;;;;;5050596;28;20449;-74
2023/01/13 01:53:56;;;;;;;2.47;1.13;;;;;;;;;;5049704;28;20446;-73
2023/01/13 01:56:23;;;;;;;1.60;1.07;;;;;;;;;;5050295;28;20939;-75
2023/01/13 01:58:52;;;;;;;1.30;1.03;;;;;;;;;;5050486;28;20714;-75
2023/01/13 02:01:19;;;;;;;1.33;0.90;;;;;;;;;;5050589;28;20460;-73
2023/01/13 02:03:49;;;;;;;2.00;1.10;;;;;;;;;;5050041;28;20577;-75
2023/01/13 02:06:16;;;;;;;2.57;1.00;;;;;;;;;;5049883;28;20953;-74
2023/01/13 02:08:43;;;;;;;2.10;0.90;;;;;;;;;;5049964;28;20461;-73
2023/01/13 02:12:28;;;;;;;1.50;0.83;;;;;;;;;;5050086;28;20933;-74
2023/01/13 02:14:13;;;;;;;1.60;0.90;;;;;;;;;;5049634;28;20471;-75
2023/01/13 02:16:42;;;;;;;2.23;1.00;;;;;;;;;;5049836;28;20942;-74
2023/01/13 02:19:16;;;;;;;2.70;1.30;;;;;;;;;;5048534;28;20861;-74
2023/01/13 02:21:54;;;;;;;1.70;1.10;;;;;;;;;;5049979;28;20438;-74
2023/01/13 02:24:54;;;;;;;1.30;1.20;;;;;;;;;;5049455;28;20477;-75
2023/01/13 02:27:31;;;;;;;1.20;1.10;;;;;;;;;;5049541;28;21032;-74
2023/01/13 02:32:53;;;;;;;2.53;1.03;;;;;;;;;;5049487;28;20503;-74
2023/01/13 02:35:22;;;;;;;1.53;1.10;;;;;;;;;;5049562;28;20446;-75
2023/01/13 02:37:49;;;;;;;1.40;1.07;;;;;;;;;;5049293;28;20483;-73
2023/01/13 02:40:20;;;;;;;1.20;1.10;;;;;;;;;;5049277;28;20445;-73
2023/01/13 02:45:38;;;;;;;4.47;1.10;;;;;;;;;;5049190;28;20417;-73
2023/01/13 02:48:07;;;;;;;1.00;0.90;;;;;;;;;;5049114;28;20492;-75
2023/01/13 02:50:36;;;;;;;1.30;1.20;;;;;;;;;;5049507;28;20821;-75
2023/01/13 02:53:05;;;;;;;2.37;1.00;;;;;;;;;;5049285;28;20453;-73
2023/01/13 02:55:34;;;;;;;0.97;0.90;;;;;;;;;;5050336;28;20972;-73
2023/01/13 02:58:02;;;;;;;0.80;0.80;;;;;;;;;;5050905;28;20969;-73
2023/01/13 03:00:32;;;;;;;1.57;1.47;;;;;;;;;;5052321;28;20968;-74
2023/01/13 03:03:01;;;;;;;0.90;0.77;;;;;;;;;;5048811;28;20996;-75
2023/01/13 03:05:28;;;;;;;1.80;1.00;;;;;;;;;;5049303;28;20910;-75
2023/01/13 03:08:02;;;;;;;1.10;1.00;;;;;;;;;;5049422;28;20450;-74
2023/01/13 03:10:36;;;;;;;1.40;1.30;;;;;;;;;;5049809;28;20445;-74
2023/01/13 03:13:13;;;;;;;2.07;1.00;;;;;;;;;;5051775;28;20563;-74
2023/01/13 03:15:44;;;;;;;1.20;1.10;;;;;;;;;;5040052;28;20443;-74
2023/01/13 03:18:19;;;;;;;1.70;1.00;;;;;;;;;;5032838;28;20529;-75
2023/01/13 03:20:50;;;;;;;1.03;1.00;;;;;;;;;;5051539;28;20473;-74
2023/01/13 03:23:20;;;;;;;1.20;1.20;;;;;;;;;;5052662;28;20889;-73
2023/01/13 03:25:50;;;;;;;2.20;0.80;;;;;;;;;;5049260;28;20445;-75
2023/01/13 03:28:20;;;;;;;4.07;1.13;;;;;;;;;;5051863;28;20483;-74
2023/01/13 03:30:50;;;;;;;2.30;1.40;;;;;;;;;;5051312;28;20445;-74
2023/01/13 03:33:22;;;;;;;0.83;0.80;;;;;;;;;;5050101;28;20447;-74
2023/01/13 03:35:51;;;;;;;0.93;0.93;;;;;;;;;;5050441;28;20556;-74
2023/01/13 03:38:19;;;;;;;1.50;0.90;;;;;;;;;;5050290;28;20973;-73
2023/01/13 03:40:50;;;;;;;1.03;0.80;;;;;;;;;;5050651;28;20969;-74
2023/01/13 03:46:07;;;;;;;4.00;1.10;;;;;;;;;;5050918;28;20448;-75
2023/01/13 03:48:38;;;;;;;1.23;0.80;;;;;;;;;;5050405;28;20457;-74
2023/01/13 03:51:06;;;;;;;1.27;1.07;;;;;;;;;;5050426;28;20446;-75
2023/01/13 03:53:36;;;;;;;1.20;1.10;;;;;;;;;;5050617;28;20456;-75
2023/01/13 03:56:08;;;;;;;0.90;0.90;;;;;;;;;;5049171;28;20521;-74
2023/01/13 03:58:38;;;;;;;1.30;0.80;;;;;;;;;;5048227;28;20999;-75
2023/01/13 04:01:10;;;;;;;1.10;1.10;;;;;;;;;;5048272;28;21059;-75
2023/01/13 04:03:41;;;;;;;2.70;1.10;;;;;;;;;;5047848;28;20615;-75
2023/01/13 04:06:12;;;;;;;1.07;0.90;;;;;;;;;;5048281;28;20456;-74
2023/01/13 04:08:42;;;;;;;1.03;1.00;;;;;;;;;;5047917;28;20480;-74
2023/01/13 04:11:11;;;;;;;1.37;0.90;;;;;;;;;;5048109;28;20441;-74
2023/01/13 04:13:40;;;;;;;1.20;1.10;;;;;;;;;;5047753;28;20445;-74
2023/01/13 04:16:08;;;;;;;1.13;1.00;;;;;;;;;;5048051;28;20954;-74
2023/01/13 04:18:37;;;;;;;1.03;1.03;;;;;;;;;;5048551;28;20482;-75
2023/01/13 04:21:06;;;;;;;2.33;1.33;;;;;;;;;;5047867;28;20461;-75
2023/01/13 04:23:34;;;;;;;1.40;1.30;;;;;;;;;;5047798;28;20493;-74
2023/01/13 04:26:01;;;;;;;0.80;0.80;;;;;;;;;;5047996;28;20449;-75
2023/01/13 04:28:28;;;;;;;0.90;0.70;;;;;;;;;;5047602;28;20481;-75
2023/01/13 04:30:55;;;;;;;0.80;0.80;;;;;;;;;;5047633;28;20446;-75
2023/01/13 04:33:22;;;;;;;1.23;1.07;;;;;;;;;;5047768;28;20452;-73
2023/01/13 04:35:49;;;;;;;1.03;0.87;;;;;;;;;;5048017;28;20957;-75
2023/01/13 04:38:18;;;;;;;1.17;0.73;;;;;;;;;;5047637;28;20580;-74
2023/01/13 04:40:45;;;;;;;1.57;1.00;;;;;;;;;;5047724;28;20448;-75
2023/01/13 04:43:14;;;;;;;1.80;1.00;;;;;;;;;;5051255;28;20485;-76
2023/01/13 04:45:41;;;;;;;1.70;1.07;;;;;;;;;;5051744;28;20535;-74
2023/01/13 04:48:08;;;;;;;1.57;1.10;;;;;;;;;;5052125;28;20469;-74
2023/01/13 04:50:35;;;;;;;0.80;0.80;;;;;;;;;;5051980;28;20453;-76
2023/01/13 04:53:03;;;;;;;1.87;1.10;;;;;;;;;;5051427;28;20450;-74
2023/01/13 04:55:31;;;;;;;1.00;0.90;;;;;;;;;;5051864;28;20932;-75
2023/01/13 04:58:01;;;;;;;1.33;0.70;;;;;;;;;;5051954;28;20511;-74
2023/01/13 05:00:28;;;;;;;1.43;1.00;;;;;;;;;;5052275;28;20541;-76
2023/01/13 05:02:55;;;;;;;1.10;0.97;;;;;;;;;;5052228;28;20452;-75
2023/01/13 05:05:23;;;;;;;2.20;1.03;;;;;;;;;;5053784;28;20441;-75
2023/01/13 05:07:50;;;;;;;0.77;0.77;;;;;;;;;;5054120;28;20456;-76
2023/01/13 05:10:17;;;;;;;1.73;1.20;;;;;;;;;;5054604;28;20441;-75
2023/01/13 05:18:15;;;;;;;0.83;0.83;;;;;;;;;;5062282;28;20439;-74
2023/01/13 05:20:43;;;;;;;0.90;0.90;;;;;;;;;;5073650;28;20436;-74
2023/01/13 05:25:54;;;;;;;1.23;0.80;;;;;;;;;;5073225;28;20419;-75
2023/01/13 05:28:23;;;;;;;0.87;0.87;;;;;;;;;;5072717;28;20476;-74
2023/01/13 05:30:51;;;;;;;1.17;0.83;;;;;;;;;;5073315;28;20448;-75
2023/01/13 05:33:20;;;;;;;1.90;0.80;;;;;;;;;;5072535;28;20492;-74
2023/01/13 05:35:47;;;;;;;1.43;1.07;;;;;;;;;;5073083;28;20531;-74
2023/01/13 05:38:15;;;;;;;6.63;5.97;;;;;;;;;;5074301;28;20487;-74
2023/01/13 05:43:29;;;;;;;0.90;0.90;;;;;;;;;;5073242;28;20884;-74
2023/01/13 05:45:58;;;;;;;1.13;0.97;;;;;;;;;;5073642;28;20455;-75
2023/01/13 05:48:25;;;;;;;2.00;0.97;;;;;;;;;;5074033;28;20476;-75
2023/01/13 05:50:53;;;;;;;0.93;0.93;;;;;;;;;;5075845;28;20444;-74
2023/01/13 05:53:21;;;;;;;1.23;0.90;;;;;;;;;;5074099;28;20441;-75
2023/01/13 05:55:49;;;;;;;2.10;1.20;;;;;;;;;;5073986;28;20456;-73
2023/01/13 05:58:17;;;;;;;0.90;0.90;;;;;;;;;;5072793;28;20465;-75
2023/01/13 06:00:46;;;;;;;2.97;1.00;;;;;;;;;;5075476;28;20460;-74
2023/01/13 06:03:14;;;;;;;1.00;1.00;;;;;;;;;;5079738;28;20935;-75
2023/01/13 06:05:42;;;;;;;1.27;0.90;;;;;;;;;;5082004;28;20447;-74
2023/01/13 06:08:09;;;;;;;0.93;0.93;;;;;;;;;;5077767;28;20464;-74
2023/01/13 06:10:36;;;;;;;0.80;0.70;;;;;;;;;;5075183;28;20437;-75
2023/01/13 06:13:04;;;;;;;0.60;0.60;;;;;;;;;;5076109;28;20432;-73
2023/01/13 06:15:31;;;;;;;1.00;0.90;;;;;;;;;;5064580;28;20445;-74
2023/01/13 06:18:02;;;;;;;0.60;0.60;;;;;;;;;;5056170;28;20434;-74
2023/01/13 06:20:29;;;;;;;0.70;0.70;;;;;;;;;;5062109;28;20434;-74
2023/01/13 06:22:56;;;;;;;0.80;0.80;;;;;;;;;;5061794;28;20464;-74
2023/01/13 06:25:26;;;;;;;0.80;0.80;;;;;;;;;;5061817;28;20677;-74
2023/01/13 06:27:54;;;;;;;0.97;0.87;;;;;;;;;;5056041;28;20472;-75
2023/01/13 06:30:22;;;;;;;0.93;0.80;;;;;;;;;;5052330;28;20445;-75
2023/01/13 06:32:51;;;;;;;0.80;0.80;;;;;;;;;;5051915;28;20871;-76
2023/01/13 06:35:21;;;;;;;0.70;0.70;;;;;;;;;;5052052;28;20449;-73
2023/01/13 06:37:49;;;;;;;1.17;1.07;;;;;;;;;;5051774;28;20449;-74
2023/01/13 06:40:16;;;;;;;1.80;0.87;;;;;;;;;;5051115;28;20945;-74
2023/01/13 06:45:29;;;;;;;0.80;0.70;;;;;;;;;;5050612;28;21030;-72
2023/01/13 06:47:58;;;;;;;0.80;0.80;;;;;;;;;;5051291;28;20453;-73
2023/01/13 06:50:26;;;;;;;1.33;0.93;;;;;;;;;;5051697;28;20487;-74
2023/01/13 06:52:53;;;;;;;1.00;1.00;;;;;;;;;;5051588;28;20448;-74
2023/01/13 06:55:21;;;;;;;0.80;0.80;;;;;;;;;;5051855;28;20453;-74
2023/01/13 06:57:49;;;;;;;0.60;0.60;;;;;;;;;;5050521;28;20433;-75
2023/01/13 07:00:17;;;;;;;1.17;0.80;;;;;;;;;;5051584;28;20449;-73
2023/01/13 07:02:44;;;;;;;0.80;0.80;;;;;;;;;;5055706;28;20460;-73
2023/01/13 07:05:11;;;;;;;1.60;0.73;;;;;;;;;;5063471;28;20489;-74
2023/01/13 07:07:39;;;;;;;5.27;4.77;;;;;;;;;;5058189;28;20855;-74
2023/01/13 07:10:08;;;;;;;0.80;0.80;;;;;;;;;;5050816;28;20465;-75
2023/01/13 07:15:17;;;;;;;0.80;0.80;;;;;;;;;;5050513;28;20925;-75
2023/01/13 07:15:23;;;;;;;0.70;0.70;;;;;;;;;;5050938;28;20436;-75
2023/01/13 07:17:50;;;;;;;1.17;0.93;;;;;;;;;;5051319;28;20468;-74
2023/01/13 07:20:17;;;;;;;0.70;0.70;;;;;;;;;;5051256;28;20448;-75
2023/01/13 07:22:46;;;;;;;0.73;0.67;;;;;;;;;;5050861;28;20452;-75
2023/01/13 07:25:13;;;;;;;0.80;0.80;;;;;;;;;;5050607;28;20477;-74
2023/01/13 07:27:40;;;;;;;0.83;0.80;;;;;;;;;;5050660;28;20961;-73
2023/01/13 07:30:08;;;;;;;0.90;0.90;;;;;;;;;;5049881;28;20481;-74
2023/01/13 07:32:35;;;;;;;0.60;0.60;;;;;;;;;;5049150;28;20446;-74
2023/01/13 07:35:04;;;;;;;0.93;0.87;;;;;;;;;;5049934;28;20441;-74
2023/01/13 07:37:32;;;;;;;1.33;0.77;;;;;;;;;;5049902;28;20523;-75
2023/01/13 07:40:00;;;;;;;0.80;0.80;;;;;;;;;;5049759;28;20465;-73
2023/01/13 07:45:12;;;;;;;1.20;0.73;;;;;;;;;;5049500;28;20485;-75
2023/01/13 07:47:39;;;;;;;1.20;0.63;;;;;;;;;;5049641;28;20448;-74
2023/01/13 07:50:07;;;;;;;1.90;0.70;;;;;;;;;;5049403;28;20511;-75
2023/01/13 07:52:34;;;;;;;0.67;0.67;;;;;;;;;;5049554;28;20457;-75
2023/01/13 07:55:02;;;;;;;1.17;0.83;;;;;;;;;;5049960;28;20449;-74
2023/01/13 07:57:29;;;;;;;1.03;0.80;;;;;;;;;;5049709;28;20540;-76
2023/01/13 07:59:56;;;;;;;0.97;0.57;;;;;;;;;;5049641;28;20465;-74
2023/01/13 08:02:24;;;;;;;0.77;0.77;;;;;;;;;;5049189;28;20937;-74
2023/01/13 08:04:51;;;;;;;1.67;0.70;;;;;;;;;;5049271;28;21039;-74
2023/01/13 08:07:18;;;;;;;0.90;0.67;;;;;;;;;;5049537;28;20438;-74
2023/01/13 08:09:45;;;;;;;0.60;0.60;;;;;;;;;;5049427;28;20645;-75
2023/01/13 08:14:58;;;;;;;0.67;0.67;;;;;;;;;;5043983;28;20996;-74
2023/01/13 08:17:25;;;;;;;0.70;0.70;;;;;;;;;;5028959;28;20450;-74
2023/01/13 08:19:52;;;;;;;0.60;0.60;;;;;;;;;;5029752;28;20560;-75
2023/01/13 08:22:19;;;;;;;0.53;0.53;;;;;;;;;;5029535;28;20447;-75
2023/01/13 08:24:46;;;;;;;0.80;0.80;;;;;;;;;;5029184;28;20488;-74
2023/01/13 08:27:14;;;;;;;0.93;0.60;;;;;;;;;;4994351;28;1018574;-74
2023/01/13 08:29:41;;;;;;;1.00;0.80;;;;;;;;;;5029799;28;20303;-73
2023/01/13 08:32:08;;;;;;;0.97;0.97;;;;;;;;;;5029863;28;20491;-73
2023/01/13 08:34:36;;;;;;;1.03;1.00;;;;;;;;;;5029816;28;20442;-75
2023/01/13 08:37:03;;;;;;;0.70;0.70;;;;;;;;;;5030357;28;20461;-74
2023/01/13 08:39:30;;;;;;;0.93;0.80;;;;;;;;;;5029672;28;20891;-74
2023/01/13 08:41:58;;;;;;;1.23;0.90;;;;;;;;;;5031303;28;20817;-73
2023/01/13 08:44:27;;;;;;;1.07;0.70;;;;;;;;;;5030549;28;20522;-75
2023/01/13 08:46:54;;;;;;;0.83;0.83;;;;;;;;;;5030353;28;20455;-74
2023/01/13 08:49:22;;;;;;;4.83;1.10;;;;;;;;;;5029501;28;20833;-73
2023/01/13 08:51:49;;;;;;;0.80;0.80;;;;;;;;;;5029309;28;20453;-74
2023/01/13 08:54:16;;;;;;;0.80;0.80;;;;;;;;;;5030060;28;20465;-75
2023/01/13 08:56:44;;;;;;;1.90;0.80;;;;;;;;;;5030651;28;20526;-74
2023/01/13 08:59:12;;;;;;;0.97;0.80;;;;;;;;;;5030193;28;20473;-73
2023/01/13 09:01:40;;;;;;;0.97;0.90;;;;;;;;;;5030777;28;20442;-75
2023/01/13 09:04:08;;;;;;;1.10;1.10;;;;;;;;;;5030655;28;20455;-74
2023/01/13 09:06:35;;;;;;;0.90;0.90;;;;;;;;;;5029569;28;20442;-74
2023/01/13 09:09:02;;;;;;;1.80;0.93;;;;;;;;;;5029370;28;20463;-73
2023/01/13 09:14:17;;;;;;;2.53;0.60;;;;;;;;;;5029877;28;20520;-75
2023/01/13 09:16:46;;;;;;;0.80;0.80;;;;;;;;;;5030172;28;20533;-74
2023/01/13 09:19:13;;;;;;;1.20;1.20;;;;;;;;;;5030016;28;20478;-75
2023/01/13 09:21:40;;;;;;;0.60;0.60;;;;;;;;;;5029649;28;20450;-75
2023/01/13 09:24:07;;;;;;;0.60;0.60;;;;;;;;;;5029427;28;20451;-75
2023/01/13 09:26:35;;;;;;;1.03;0.70;;;;;;;;;;5031741;28;20446;-74
2023/01/13 09:29:02;;;;;;;1.00;0.70;;;;;;;;;;5033499;28;21019;-75
2023/01/13 09:31:33;;;;;;;2.73;0.73;;;;;;;;;;5033199;28;20534;-74
2023/01/13 09:36:46;;;;;;;3.10;0.70;;;;;;;;;;5036041;28;20476;-74
2023/01/13 09:39:13;;;;;;;0.50;0.50;;;;;;;;;;5036262;28;20477;-74
2023/01/13 09:44:30;;;;;;;0.80;0.70;;;;;;;;;;5032943;28;20510;-75
2023/01/13 09:47:00;;;;;;;0.97;0.60;;;;;;;;;;5032976;28;20458;-74
2023/01/13 09:49:31;;;;;;;0.60;0.60;;;;;;;;;;5032556;28;20458;-73
2023/01/13 09:51:59;;;;;;;0.60;0.60;;;;;;;;;;5032620;28;20813;-75
2023/01/13 09:54:31;;;;;;;0.80;0.80;;;;;;;;;;5032229;28;20953;-74
2023/01/13 09:56:58;;;;;;;0.60;0.60;;;;;;;;;;5032429;28;20478;-74
2023/01/13 09:59:27;;;;;;;1.03;0.70;;;;;;;;;;5032518;28;20490;-73
2023/01/13 10:01:58;;;;;;;0.80;0.63;;;;;;;;;;5032487;28;20442;-73
2023/01/13 10:04:25;;;;;;;1.90;0.80;;;;;;;;;;5032215;28;20468;-75
2023/01/13 10:06:56;;;;;;;1.93;0.73;;;;;;;;;;5032199;28;20793;-74
2023/01/13 10:09:26;;;;;;;0.63;0.63;;;;;;;;;;5032175;28;20458;-75
2023/01/13 10:14:42;;;;;;;0.63;0.60;;;;;;;;;;5034951;28;20645;-75
2023/01/13 10:17:19;;;;;;;0.70;0.70;;;;;;;;;;5052191;28;20445;-75
2023/01/13 10:19:49;;;;;;;0.73;0.63;;;;;;;;;;5052159;28;20465;-75
2023/01/13 10:22:22;;;;;;;0.70;0.70;;;;;;;;;;5052259;28;20441;-74
2023/01/13 10:24:57;;;;;;;1.03;0.80;;;;;;;;;;5052668;28;20461;-74
2023/01/13 10:27:28;;;;;;;2.20;0.70;;;;;;;;;;5051822;28;20832;-75
2023/01/13 10:29:55;;;;;;;1.27;0.80;;;;;;;;;;5052707;28;20476;-75
2023/01/13 10:32:22;;;;;;;1.10;1.00;;;;;;;;;;5052947;28;20519;-74
2023/01/13 10:34:51;;;;;;;0.70;0.70;;;;;;;;;;5052840;28;20499;-74
2023/01/13 10:37:23;;;;;;;1.43;0.93;;;;;;;;;;5061447;28;20450;-74
2023/01/13 10:39:50;;;;;;;0.90;0.90;;;;;;;;;;5068398;28;20462;-73
2023/01/13 10:42:18;;;;;;;0.70;0.70;;;;;;;;;;5056869;28;20529;-74
2023/01/13 10:44:49;;;;;;;1.57;1.10;;;;;;;;;;5051849;28;20500;-73
2023/01/13 10:47:21;;;;;;;1.20;0.90;;;;;;;;;;5051745;28;20487;-76
2023/01/13 10:49:59;;;;;;;1.53;0.90;;;;;;;;;;5052026;28;20527;-74
2023/01/13 10:52:29;;;;;;;1.73;0.80;;;;;;;;;;5051811;28;20839;-75
2023/01/13 10:54:56;;;;;;;1.33;0.60;;;;;;;;;;5051872;28;20444;-75
2023/01/13 10:57:25;;;;;;;0.70;0.70;;;;;;;;;;5052413;28;20499;-74
2023/01/13 10:59:53;;;;;;;2.70;1.53;;;;;;;;;;5057152;28;20501;-74
2023/01/13 11:02:25;;;;;;;0.97;0.77;;;;;;;;;;5058751;28;20513;-73
2023/01/13 11:04:59;;;;;;;1.13;0.90;;;;;;;;;;5056825;28;20446;-75
2023/01/13 11:07:30;;;;;;;2.70;1.17;;;;;;;;;;5052355;28;20820;-73
2023/01/13 11:10:10;;;;;;;0.60;0.60;;;;;;;;;;5050823;28;20457;-75
2023/01/13 11:12:44;;;;;;;3.87;1.20;;;;;;;;;;5050827;28;20445;-74
2023/01/13 11:15:14;;;;;;;1.97;0.90;;;;;;;;;;5060496;28;20937;-74
2023/01/13 11:17:45;;;;;;;0.97;0.77;;;;;;;;;;5051766;28;20511;-73
2023/01/13 11:20:18;;;;;;;1.20;1.10;;;;;;;;;;5050863;28;20821;-75
2023/01/13 11:22:47;;;;;;;4.10;1.00;;;;;;;;;;5050912;28;20450;-74
2023/01/13 11:25:16;;;;;;;2.40;1.03;;;;;;;;;;5054154;28;20481;-75
2023/01/13 11:27:44;;;;;;;2.40;0.93;;;;;;;;;;5054564;28;20458;-75
2023/01/13 11:30:18;;;;;;;1.00;0.80;;;;;;;;;;5054183;28;20445;-74
2023/01/13 11:32:53;;;;;;;3.20;0.87;;;;;;;;;;5053614;28;20446;-75
2023/01/13 11:35:21;;;;;;;1.03;0.60;;;;;;;;;;5054337;28;20941;-75
2023/01/13 11:37:52;;;;;;;1.10;0.83;;;;;;;;;;5056214;28;20465;-74
2023/01/13 11:40:33;;;;;;;1.23;1.10;;;;;;;;;;5052214;28;20457;-74
2023/01/13 11:43:02;;;;;;;1.30;0.90;;;;;;;;;;5050629;28;20510;-75
2023/01/13 11:45:33;;;;;;;1.67;1.00;;;;;;;;;;5050336;28;20470;-73
2023/01/13 11:48:00;;;;;;;1.60;0.90;;;;;;;;;;5051804;28;20454;-74
2023/01/13 11:50:30;;;;;;;1.37;1.20;;;;;;;;;;5051166;28;20855;-74
2023/01/13 11:53:05;;;;;;;0.97;0.90;;;;;;;;;;5052053;28;20445;-75
2023/01/13 11:55:35;;;;;;;1.10;1.00;;;;;;;;;;5051021;28;20477;-75
2023/01/13 11:58:09;;;;;;;1.47;0.80;;;;;;;;;;5051045;28;20508;-74
2023/01/13 12:00:41;;;;;;;1.13;1.00;;;;;;;;;;5050563;28;20452;-74
2023/01/13 12:03:17;;;;;;;0.93;0.93;;;;;;;;;;5050099;28;20540;-74
2023/01/13 12:05:45;;;;;;;1.50;1.23;;;;;;;;;;5049903;28;21005;-75
2023/01/13 12:08:18;;;;;;;2.27;0.90;;;;;;;;;;5052563;28;20461;-74
2023/01/13 12:10:50;;;;;;;0.93;0.93;;;;;;;;;;5055516;28;20445;-74
2023/01/13 12:13:22;;;;;;;1.10;1.00;;;;;;;;;;5053728;28;20449;-74
2023/01/13 12:16:11;;;;;;;1.27;1.23;;;;;;;;;;5040075;28;20435;-74
2023/01/13 12:18:56;;;;;;;1.40;0.97;;;;;;;;;;5033235;28;20470;-75
2023/01/13 12:21:24;;;;;;;1.30;1.20;;;;;;;;;;5031991;28;20512;-73
2023/01/13 12:24:04;;;;;;;1.37;1.00;;;;;;;;;;5029888;28;20443;-74
2023/01/13 12:26:33;;;;;;;1.37;1.23;;;;;;;;;;5030583;28;20893;-75
2023/01/13 12:29:02;;;;;;;1.63;1.50;;;;;;;;;;5030355;28;20458;-74
2023/01/13 12:31:30;;;;;;;1.43;1.27;;;;;;;;;;5029987;28;20442;-75
2023/01/13 12:34:01;;;;;;;3.70;1.60;;;;;;;;;;5030316;28;20496;-76
2023/01/13 12:36:32;;;;;;;1.90;1.50;;;;;;;;;;5030846;28;20449;-74
2023/01/13 12:39:05;;;;;;;3.50;1.43;;;;;;;;;;5034497;28;20575;-73
2023/01/13 12:41:36;;;;;;;1.93;1.30;;;;;;;;;;5052704;28;20451;-73
2023/01/13 12:44:19;;;;;;;3.47;1.33;;;;;;;;;;5054211;28;20431;-75
2023/01/13 12:46:51;;;;;;;2.57;1.43;;;;;;;;;;5054953;28;20461;-72
2023/01/13 12:49:19;;;;;;;1.53;1.10;;;;;;;;;;5054414;28;20465;-73
2023/01/13 12:52:06;;;;;;;13.07;2.30;;;;;;;;;;5040922;28;20439;-75
2023/01/13 12:54:55;;;;;;;3.87;1.40;;;;;;;;;;5029681;28;20489;-73
2023/01/13 12:57:25;;;;;;;6.13;1.40;;;;;;;;;;5030194;28;20531;-74
2023/01/13 13:00:13;;;;;;;3.03;1.40;;;;;;;;;;5029942;28;21001;-74
2023/01/13 13:02:40;;;;;;;1.83;1.63;;;;;;;;;;5030344;28;20449;-75
2023/01/13 13:05:26;;;;;;;2.20;1.23;;;;;;;;;;5033643;28;20446;-74
2023/01/13 13:08:01;;;;;;;2.60;1.40;;;;;;;;;;5033378;28;20557;-73
2023/01/13 13:10:30;;;;;;;2.23;1.50;;;;;;;;;;5033439;28;20450;-74
2023/01/13 13:13:16;;;;;;;2.70;1.70;;;;;;;;;;5032830;28;20465;-74
2023/01/13 13:15:44;;;;;;;1.33;1.23;;;;;;;;;;5046225;28;20437;-74
2023/01/13 13:18:27;;;;;;;5.33;1.73;;;;;;;;;;5056996;28;20469;-73
2023/01/13 13:20:56;;;;;;;1.70;1.60;;;;;;;;;;5054648;28;20543;-73
2023/01/13 13:23:30;;;;;;;1.30;1.20;;;;;;;;;;5052797;28;20804;-74
2023/01/13 13:26:01;;;;;;;3.03;1.87;;;;;;;;;;5052989;28;20469;-73
2023/01/13 13:28:34;;;;;;;4.00;1.50;;;;;;;;;;5052833;28;20993;-74
2023/01/13 13:31:17;;;;;;;1.47;1.00;;;;;;;;;;5052872;28;21080;-74
2023/01/13 13:34:05;;;;;;;1.63;0.90;;;;;;;;;;5052821;28;20457;-74
2023/01/13 13:36:48;;;;;;;4.50;1.60;;;;;;;;;;5052808;28;20956;-73
2023/01/13 13:47:41;;;;;;;5.30;1.80;;;;;;;;;;5052988;28;20456;-74
2023/01/13 13:50:13;;;;;;;2.20;1.23;;;;;;;;;;5053260;28;20477;-75
2023/01/13 13:52:42;;;;;;;4.60;1.30;;;;;;;;;;5053972;28;20528;-75
2023/01/13 13:55:14;;;;;;;2.57;1.17;;;;;;;;;;5054094;28;20442;-75
2023/01/13 13:57:44;;;;;;;1.80;1.47;;;;;;;;;;5053019;28;20449;-74
2023/01/13 14:00:20;;;;;;;3.73;1.20;;;;;;;;;;5053269;28;20452;-76
2023/01/13 14:02:49;;;;;;;1.33;1.00;;;;;;;;;;5053264;28;20449;-74
2023/01/13 14:05:18;;;;;;;1.27;0.80;;;;;;;;;;5053352;28;20452;-74
2023/01/13 14:07:45;;;;;;;2.93;1.00;;;;;;;;;;5052509;28;20477;-74
2023/01/13 14:10:17;;;;;;;2.27;1.17;;;;;;;;;;5052359;28;20464;-74
2023/01/13 14:12:44;;;;;;;3.10;0.97;;;;;;;;;;5052146;28;20950;-74
2023/01/13 14:15:24;;;;;;;1.53;0.80;;;;;;;;;;5049663;28;20447;-75
2023/01/13 14:17:51;;;;;;;2.00;0.97;;;;;;;;;;5038013;28;20442;-75
2023/01/13 14:20:19;;;;;;;1.07;1.07;;;;;;;;;;5035310;28;20442;-74
2023/01/13 14:22:47;;;;;;;0.80;0.80;;;;;;;;;;5032319;28;20489;-75
2023/01/13 14:25:29;;;;;;;0.87;0.87;;;;;;;;;;5032933;28;20462;-75
2023/01/13 14:27:57;;;;;;;1.27;1.23;;;;;;;;;;5030710;28;20561;-74
2023/01/13 14:30:26;;;;;;;0.77;0.77;;;;;;;;;;5032503;28;20443;-74
2023/01/13 14:32:54;;;;;;;0.90;0.90;;;;;;;;;;5031611;28;20477;-74
2023/01/13 14:35:21;;;;;;;1.23;1.00;;;;;;;;;;5031838;28;20485;-74
2023/01/13 14:37:49;;;;;;;2.40;0.93;;;;;;;;;;5031797;28;20946;-75
2023/01/13 14:40:35;;;;;;;1.33;1.07;;;;;;;;;;5032324;28;20518;-74
2023/01/13 14:43:03;;;;;;;1.00;0.83;;;;;;;;;;5031736;28;20450;-75
2023/01/13 14:45:32;;;;;;;2.07;0.93;;;;;;;;;;5032127;28;20454;-74
2023/01/13 14:48:01;;;;;;;2.07;1.00;;;;;;;;;;5032502;28;20489;-75
2023/01/13 14:50:32;;;;;;;1.10;0.90;;;;;;;;;;5031867;28;20438;-75
2023/01/13 14:53:00;;;;;;;0.93;0.90;;;;;;;;;;5031097;28;20451;-75
2023/01/13 14:55:31;;;;;;;0.87;0.60;;;;;;;;;;5031537;28;20822;-74
2023/01/13 14:58:16;;;;;;;1.47;0.80;;;;;;;;;;5031173;28;20849;-73
2023/01/13 15:00:45;;;;;;;0.97;0.97;;;;;;;;;;5031378;28;20461;-75
2023/01/13 15:03:14;;;;;;;1.47;1.00;;;;;;;;;;5030936;28;20503;-75
2023/01/13 15:05:46;;;;;;;1.60;1.50;;;;;;;;;;5031373;28;20443;-73
2023/01/13 15:08:34;;;;;;;1.17;1.17;;;;;;;;;;5030971;28;20489;-75
2023/01/13 15:11:02;;;;;;;3.37;1.70;;;;;;;;;;5027726;28;21012;-74
2023/01/13 15:13:34;;;;;;;1.40;1.00;;;;;;;;;;5030730;28;20836;-74
2023/01/13 15:16:04;;;;;;;1.40;1.33;;;;;;;;;;5044585;28;20441;-73
2023/01/13 15:18:31;;;;;;;1.90;1.80;;;;;;;;;;5050997;28;20516;-74
2023/01/13 15:20:58;;;;;;;10.50;9.37;;;;;;;;;;5050693;28;20448;-74
2023/01/13 15:23:25;;;;;;;3.13;2.47;;;;;;;;;;5051065;28;20457;-75
2023/01/13 15:25:52;;;;;;;3.30;1.83;;;;;;;;;;5050169;28;20442;-73
2023/01/13 15:28:20;;;;;;;1.50;1.10;;;;;;;;;;5050270;28;21016;-74
2023/01/13 15:30:48;;;;;;;3.63;1.80;;;;;;;;;;5050773;28;20448;-74
2023/01/13 15:33:17;;;;;;;2.60;1.27;;;;;;;;;;5050315;28;20458;-75
2023/01/13 15:35:45;;;;;;;2.87;1.20;;;;;;;;;;5050658;28;20934;-73
2023/01/13 15:38:12;;;;;;;2.93;1.40;;;;;;;;;;5050448;28;20457;-74
2023/01/13 15:40:39;;;;;;;2.50;1.40;;;;;;;;;;5050368;28;20442;-74
2023/01/13 15:48:37;;;;;;;2.63;1.20;;;;;;;;;;5053960;28;20440;-75
2023/01/13 15:51:04;;;;;;;1.30;1.20;;;;;;;;;;5055297;28;20448;-74
2023/01/13 15:53:32;;;;;;;1.37;1.27;;;;;;;;;;5050818;28;20941;-73